This is the latest recevied weather packets stored in our database for station/object IU1FIL-23. If no packets are shown the sender has not sent any weather packets the latest 10 day(s).
| Time | Temp. | Humidity | Pressure | Rain* | Wind** | Luminosity | Snow |
|---|---|---|---|---|---|---|---|
| 1777558668 | 26.11° C | 28% | 1022.2 hPa | - | - | - | - |
| 1777558064 | 27.22° C | 27% | 1022.1 hPa | - | - | - | - |
| 1777557460 | 27.78° C | 27% | 1022.1 hPa | - | - | - | - |
| 1777556856 | 28.33° C | 26% | 1022.1 hPa | - | - | - | - |
| 1777556252 | 28.89° C | 27% | 1022.2 hPa | - | - | - | - |
| 1777555648 | 28.33° C | 27% | 1022.2 hPa | - | - | - | - |
| 1777555038 | 28.33° C | 27% | 1022.2 hPa | - | - | - | - |
| 1777554433 | 28.33° C | 27% | 1022.1 hPa | - | - | - | - |
| 1777553822 | 28.33° C | 26% | 1022 hPa | - | - | - | - |
| 1777553218 | 29.44° C | 27% | 1022 hPa | - | - | - | - |
| 1777552601 | 28.33° C | 27% | 1021.9 hPa | - | - | - | - |
| 1777551997 | 28.33° C | 29% | 1022.1 hPa | - | - | - | - |
| 1777551393 | 28.89° C | 29% | 1022.2 hPa | - | - | - | - |
| 1777550789 | 28.33° C | 30% | 1022.2 hPa | - | - | - | - |
| 1777550185 | 28.89° C | 31% | 1022.2 hPa | - | - | - | - |
| 1777549581 | 28.89° C | 30% | 1022.2 hPa | - | - | - | - |
| 1777548376 | 29.44° C | 33% | 1022.2 hPa | - | - | - | - |
| 1777548370 | 29.44° C | 33% | 1022.2 hPa | - | - | - | - |
| 1777547766 | 28.33° C | 33% | 1022.2 hPa | - | - | - | - |
| 1777547161 | 24.44° C | 37% | 1022.2 hPa | - | - | - | - |
| 1777546557 | 24.44° C | 37% | 1022.3 hPa | - | - | - | - |
| 1777545953 | 23.33° C | 38% | 1022.3 hPa | - | - | - | - |
| 1777545349 | 22.78° C | 41% | 1022.2 hPa | - | - | - | - |
| 1777544745 | 23.33° C | 42% | 1022.2 hPa | - | - | - | - |
| 1777544136 | 21.67° C | 44% | 1022.2 hPa | - | - | - | - |
* Rain since midnight (hover to see other rain measurements)
** Current wind speed in m/s (hover to see current wind gust speed)